sensor_id;sensor_type;location;lat;lon;timestamp;pressure;altitude;pressure_sealevel;temperature;humidity
74544;BME280;63016;55.030;38.710;2024-03-22T00:01:48;100543.19;;;-0.22;48.88
74544;BME280;63016;55.030;38.710;2024-03-22T00:04:14;100524.06;;;-0.33;48.51
74544;BME280;63016;55.030;38.710;2024-03-22T00:06:44;100533.28;;;-0.29;48.45
74544;BME280;63016;55.030;38.710;2024-03-22T00:09:13;100534.34;;;-0.33;49.11
74544;BME280;63016;55.030;38.710;2024-03-22T00:11:40;100535.41;;;-0.37;48.91
74544;BME280;63016;55.030;38.710;2024-03-22T00:14:06;100536.38;;;-0.39;48.72
74544;BME280;63016;55.030;38.710;2024-03-22T00:16:32;100544.38;;;-0.45;48.33
74544;BME280;63016;55.030;38.710;2024-03-22T00:18:57;100541.00;;;-0.46;48.30
74544;BME280;63016;55.030;38.710;2024-03-22T00:21:23;100544.47;;;-0.47;49.04
74544;BME280;63016;55.030;38.710;2024-03-22T00:23:49;100542.16;;;-0.52;48.45
74544;BME280;63016;55.030;38.710;2024-03-22T00:26:15;100536.25;;;-0.54;48.40
74544;BME280;63016;55.030;38.710;2024-03-22T00:28:41;100528.22;;;-0.63;48.38
74544;BME280;63016;55.030;38.710;2024-03-22T00:31:07;100526.41;;;-0.61;48.59
74544;BME280;63016;55.030;38.710;2024-03-22T00:33:32;100518.97;;;-0.66;48.23
74544;BME280;63016;55.030;38.710;2024-03-22T00:35:58;100523.25;;;-0.66;48.69
74544;BME280;63016;55.030;38.710;2024-03-22T00:38:23;100516.94;;;-0.76;48.47
74544;BME280;63016;55.030;38.710;2024-03-22T00:40:49;100525.38;;;-0.74;48.76
74544;BME280;63016;55.030;38.710;2024-03-22T00:43:14;100518.69;;;-0.77;48.79
74544;BME280;63016;55.030;38.710;2024-03-22T00:45:40;100522.38;;;-0.83;48.57
74544;BME280;63016;55.030;38.710;2024-03-22T00:48:06;100525.09;;;-0.86;48.10
74544;BME280;63016;55.030;38.710;2024-03-22T00:50:32;100522.69;;;-0.89;48.74
74544;BME280;63016;55.030;38.710;2024-03-22T00:52:57;100522.75;;;-0.90;48.40
74544;BME280;63016;55.030;38.710;2024-03-22T00:55:23;100518.78;;;-0.96;48.68
74544;BME280;63016;55.030;38.710;2024-03-22T00:57:49;100523.13;;;-0.98;48.43
74544;BME280;63016;55.030;38.710;2024-03-22T01:00:15;100512.38;;;-1.05;48.57
74544;BME280;63016;55.030;38.710;2024-03-22T01:02:41;100520.16;;;-1.06;48.70
74544;BME280;63016;55.030;38.710;2024-03-22T01:05:07;100533.09;;;-1.09;48.60
74544;BME280;63016;55.030;38.710;2024-03-22T01:07:33;100513.66;;;-1.13;48.46
74544;BME280;63016;55.030;38.710;2024-03-22T01:09:59;100516.31;;;-1.15;48.70
74544;BME280;63016;55.030;38.710;2024-03-22T01:12:25;100513.88;;;-1.18;48.86
74544;BME280;63016;55.030;38.710;2024-03-22T01:14:50;100513.28;;;-1.23;48.75
74544;BME280;63016;55.030;38.710;2024-03-22T01:17:16;100509.16;;;-1.25;48.29
74544;BME280;63016;55.030;38.710;2024-03-22T01:19:41;100509.28;;;-1.28;48.19
74544;BME280;63016;55.030;38.710;2024-03-22T01:22:07;100497.53;;;-1.33;48.81
74544;BME280;63016;55.030;38.710;2024-03-22T01:24:32;100511.25;;;-1.34;48.16
74544;BME280;63016;55.030;38.710;2024-03-22T01:26:58;100501.16;;;-1.37;48.34
74544;BME280;63016;55.030;38.710;2024-03-22T01:29:23;100495.59;;;-1.45;48.52
74544;BME280;63016;55.030;38.710;2024-03-22T01:31:49;100510.03;;;-1.44;48.31
74544;BME280;63016;55.030;38.710;2024-03-22T01:34:14;100494.09;;;-1.49;48.25
74544;BME280;63016;55.030;38.710;2024-03-22T01:36:40;100500.16;;;-1.51;48.56
74544;BME280;63016;55.030;38.710;2024-03-22T01:39:06;100501.97;;;-1.53;48.26
74544;BME280;63016;55.030;38.710;2024-03-22T01:41:31;100491.97;;;-1.58;48.54
74544;BME280;63016;55.030;38.710;2024-03-22T01:43:58;100492.09;;;-1.61;48.54
74544;BME280;63016;55.030;38.710;2024-03-22T01:46:23;100478.69;;;-1.66;48.33
74544;BME280;63016;55.030;38.710;2024-03-22T01:48:50;100476.22;;;-1.68;47.94
74544;BME280;63016;55.030;38.710;2024-03-22T01:51:15;100467.84;;;-1.71;48.48
74544;BME280;63016;55.030;38.710;2024-03-22T01:53:41;100468.91;;;-1.75;48.29
74544;BME280;63016;55.030;38.710;2024-03-22T01:56:07;100467.38;;;-1.79;48.13
74544;BME280;63016;55.030;38.710;2024-03-22T01:58:33;100463.19;;;-1.81;48.27
74544;BME280;63016;55.030;38.710;2024-03-22T02:00:58;100468.50;;;-1.85;48.48
74544;BME280;63016;55.030;38.710;2024-03-22T02:03:24;100462.69;;;-1.89;48.50
74544;BME280;63016;55.030;38.710;2024-03-22T02:05:49;100465.34;;;-1.90;48.39
74544;BME280;63016;55.030;38.710;2024-03-22T02:08:15;100466.34;;;-1.93;48.35
74544;BME280;63016;55.030;38.710;2024-03-22T02:10:40;100466.34;;;-1.93;48.12
74544;BME280;63016;55.030;38.710;2024-03-22T02:13:06;100467.41;;;-1.98;48.40
74544;BME280;63016;55.030;38.710;2024-03-22T02:15:31;100469.16;;;-1.99;48.19
74544;BME280;63016;55.030;38.710;2024-03-22T02:17:57;100458.47;;;-2.07;48.17
74544;BME280;63016;55.030;38.710;2024-03-22T02:20:22;100462.69;;;-2.06;48.19
74544;BME280;63016;55.030;38.710;2024-03-22T02:22:48;100462.97;;;-2.12;48.11
74544;BME280;63016;55.030;38.710;2024-03-22T02:25:13;100465.53;;;-2.12;47.94
74544;BME280;63016;55.030;38.710;2024-03-22T02:27:39;100466.47;;;-2.15;48.37
74544;BME280;63016;55.030;38.710;2024-03-22T02:30:05;100460.69;;;-2.18;48.25
74544;BME280;63016;55.030;38.710;2024-03-22T02:32:31;100459.41;;;-2.27;48.13
74544;BME280;63016;55.030;38.710;2024-03-22T02:34:56;100456.75;;;-2.25;48.43
74544;BME280;63016;55.030;38.710;2024-03-22T02:37:22;100455.97;;;-2.27;47.81
74544;BME280;63016;55.030;38.710;2024-03-22T02:39:47;100453.59;;;-2.30;48.17
74544;BME280;63016;55.030;38.710;2024-03-22T02:42:12;100449.38;;;-2.31;48.07
74544;BME280;63016;55.030;38.710;2024-03-22T02:44:38;100451.31;;;-2.37;48.67
74544;BME280;63016;55.030;38.710;2024-03-22T02:47:09;100449.72;;;-2.39;48.37
74544;BME280;63016;55.030;38.710;2024-03-22T02:49:35;100449.78;;;-2.41;48.00
74544;BME280;63016;55.030;38.710;2024-03-22T02:52:01;100449.94;;;-2.44;48.05
74544;BME280;63016;55.030;38.710;2024-03-22T02:54:26;100455.94;;;-2.45;48.37
74544;BME280;63016;55.030;38.710;2024-03-22T02:56:52;100457.94;;;-2.51;48.13
74544;BME280;63016;55.030;38.710;2024-03-22T02:59:17;100460.50;;;-2.51;48.43
74544;BME280;63016;55.030;38.710;2024-03-22T03:01:43;100452.88;;;-2.53;48.52
74544;BME280;63016;55.030;38.710;2024-03-22T03:04:08;100443.84;;;-2.60;48.17
74544;BME280;63016;55.030;38.710;2024-03-22T03:06:34;100450.63;;;-2.59;47.92
74544;BME280;63016;55.030;38.710;2024-03-22T03:08:59;100441.44;;;-2.63;47.84
74544;BME280;63016;55.030;38.710;2024-03-22T03:11:25;100433.06;;;-2.67;47.88
74544;BME280;63016;55.030;38.710;2024-03-22T03:13:50;100434.75;;;-2.66;47.87
74544;BME280;63016;55.030;38.710;2024-03-22T03:16:16;100440.72;;;-2.67;47.95
74544;BME280;63016;55.030;38.710;2024-03-22T03:18:42;100443.44;;;-2.70;47.88
74544;BME280;63016;55.030;38.710;2024-03-22T03:21:07;100445.22;;;-2.72;48.16
74544;BME280;63016;55.030;38.710;2024-03-22T03:23:33;100442.72;;;-2.73;48.18
74544;BME280;63016;55.030;38.710;2024-03-22T03:25:59;100439.44;;;-2.75;48.32
74544;BME280;63016;55.030;38.710;2024-03-22T03:28:24;100444.59;;;-2.77;48.13
74544;BME280;63016;55.030;38.710;2024-03-22T03:30:51;100432.84;;;-2.81;48.00
74544;BME280;63016;55.030;38.710;2024-03-22T03:33:16;100437.19;;;-2.83;48.03
74544;BME280;63016;55.030;38.710;2024-03-22T03:35:46;100443.13;;;-2.82;48.32
74544;BME280;63016;55.030;38.710;2024-03-22T03:38:11;100441.56;;;-2.85;48.11
74544;BME280;63016;55.030;38.710;2024-03-22T03:40:37;100437.28;;;-2.85;48.04
74544;BME280;63016;55.030;38.710;2024-03-22T03:43:03;100424.63;;;-2.88;47.83
74544;BME280;63016;55.030;38.710;2024-03-22T03:45:28;100427.31;;;-2.91;48.41
74544;BME280;63016;55.030;38.710;2024-03-22T03:47:54;100422.81;;;-2.86;48.05
74544;BME280;63016;55.030;38.710;2024-03-22T03:50:19;100418.31;;;-2.79;48.18
74544;BME280;63016;55.030;38.710;2024-03-22T03:52:44;100421.56;;;-2.75;48.55
74544;BME280;63016;55.030;38.710;2024-03-22T03:55:10;100425.47;;;-2.68;48.04
74544;BME280;63016;55.030;38.710;2024-03-22T03:57:36;100422.94;;;-2.68;48.67
74544;BME280;63016;55.030;38.710;2024-03-22T04:00:02;100422.94;;;-2.68;48.26
74544;BME280;63016;55.030;38.710;2024-03-22T04:02:27;100426.22;;;-2.66;48.54
74544;BME280;63016;55.030;38.710;2024-03-22T04:04:53;100415.88;;;-2.63;49.11
74544;BME280;63016;55.030;38.710;2024-03-22T04:07:20;100421.78;;;-2.61;49.20
74544;BME280;63016;55.030;38.710;2024-03-22T04:09:46;100421.59;;;-2.58;48.76
74544;BME280;63016;55.030;38.710;2024-03-22T04:12:12;100407.41;;;-2.64;48.96
74544;BME280;63016;55.030;38.710;2024-03-22T04:14:37;100416.50;;;-2.58;48.84
74544;BME280;63016;55.030;38.710;2024-03-22T04:17:03;100412.16;;;-2.56;48.73
74544;BME280;63016;55.030;38.710;2024-03-22T04:19:28;100410.38;;;-2.54;48.80
74544;BME280;63016;55.030;38.710;2024-03-22T04:21:54;100410.22;;;-2.51;49.24
74544;BME280;63016;55.030;38.710;2024-03-22T04:24:19;100404.22;;;-2.50;49.20
74544;BME280;63016;55.030;38.710;2024-03-22T04:26:45;100402.28;;;-2.45;49.46
74544;BME280;63016;55.030;38.710;2024-03-22T04:29:10;100402.06;;;-2.40;49.42
74544;BME280;63016;55.030;38.710;2024-03-22T04:31:36;100401.91;;;-2.37;49.36
74544;BME280;63016;55.030;38.710;2024-03-22T04:34:02;100397.44;;;-2.32;49.46
74544;BME280;63016;55.030;38.710;2024-03-22T04:36:27;100414.22;;;-2.26;49.25
74544;BME280;63016;55.030;38.710;2024-03-22T04:38:53;100413.19;;;-2.22;49.76
74544;BME280;63016;55.030;38.710;2024-03-22T04:41:18;100415.28;;;-2.13;49.79
74544;BME280;63016;55.030;38.710;2024-03-22T04:43:44;100413.28;;;-2.07;50.26
74544;BME280;63016;55.030;38.710;2024-03-22T04:46:09;100407.88;;;-2.00;49.75
74544;BME280;63016;55.030;38.710;2024-03-22T04:48:35;100409.25;;;-1.93;49.86
74544;BME280;63016;55.030;38.710;2024-03-22T04:51:00;100406.38;;;-1.87;49.82
74544;BME280;63016;55.030;38.710;2024-03-22T04:53:26;100395.94;;;-1.83;50.17
74544;BME280;63016;55.030;38.710;2024-03-22T04:55:52;100393.91;;;-1.76;50.01
74544;BME280;63016;55.030;38.710;2024-03-22T04:58:19;100385.91;;;-1.70;49.97
74544;BME280;63016;55.030;38.710;2024-03-22T05:00:45;100393.09;;;-1.59;49.90
74544;BME280;63016;55.030;38.710;2024-03-22T05:03:11;100378.25;;;-1.52;50.20
74544;BME280;63016;55.030;38.710;2024-03-22T05:05:37;100389.66;;;-1.42;50.76
74544;BME280;63016;55.030;38.710;2024-03-22T05:08:03;100383.25;;;-1.34;50.49
74544;BME280;63016;55.030;38.710;2024-03-22T05:10:29;100374.13;;;-1.22;50.58
74544;BME280;63016;55.030;38.710;2024-03-22T05:12:58;100374.41;;;-1.11;50.95
74544;BME280;63016;55.030;38.710;2024-03-22T05:15:23;100369.56;;;-0.99;51.27
74544;BME280;63016;55.030;38.710;2024-03-22T05:17:52;100381.63;;;-0.86;51.07
74544;BME280;63016;55.030;38.710;2024-03-22T05:20:18;100366.84;;;-0.81;51.52
74544;BME280;63016;55.030;38.710;2024-03-22T05:22:44;100382.81;;;-0.60;51.58
74544;BME280;63016;55.030;38.710;2024-03-22T05:25:09;100379.50;;;-0.46;51.47
74544;BME280;63016;55.030;38.710;2024-03-22T05:27:35;100378.75;;;-0.32;51.07
74544;BME280;63016;55.030;38.710;2024-03-22T05:30:02;100372.03;;;-0.19;51.11
74544;BME280;63016;55.030;38.710;2024-03-22T05:32:29;100371.00;;;-0.01;51.43
74544;BME280;63016;55.030;38.710;2024-03-22T05:34:55;100369.50;;;0.11;51.44
74544;BME280;63016;55.030;38.710;2024-03-22T05:37:21;100374.56;;;0.27;52.05
74544;BME280;63016;55.030;38.710;2024-03-22T05:39:47;100384.59;;;0.46;52.00
74544;BME280;63016;55.030;38.710;2024-03-22T05:42:13;100380.03;;;0.65;51.97
74544;BME280;63016;55.030;38.710;2024-03-22T05:44:38;100371.25;;;0.84;52.63
74544;BME280;63016;55.030;38.710;2024-03-22T05:47:04;100370.06;;;1.03;52.63
74544;BME280;63016;55.030;38.710;2024-03-22T05:49:29;100370.41;;;1.26;52.92
74544;BME280;63016;55.030;38.710;2024-03-22T05:51:55;100370.72;;;1.48;52.41
74544;BME280;63016;55.030;38.710;2024-03-22T05:54:21;100377.91;;;1.70;52.76
74544;BME280;63016;55.030;38.710;2024-03-22T05:56:46;100371.50;;;1.90;52.60
74544;BME280;63016;55.030;38.710;2024-03-22T05:59:12;100381.13;;;2.14;53.21
74544;BME280;63016;55.030;38.710;2024-03-22T06:01:37;100378.78;;;2.36;52.94
74544;BME280;63016;55.030;38.710;2024-03-22T06:04:06;100384.00;;;2.62;52.98
74544;BME280;63016;55.030;38.710;2024-03-22T06:06:35;100375.50;;;2.85;53.14
74544;BME280;63016;55.030;38.710;2024-03-22T06:09:01;100375.59;;;3.09;52.89
74544;BME280;63016;55.030;38.710;2024-03-22T06:11:34;100380.72;;;3.34;52.53
74544;BME280;63016;55.030;38.710;2024-03-22T06:13:59;100374.97;;;3.55;52.70
74544;BME280;63016;55.030;38.710;2024-03-22T06:16:25;100380.25;;;3.77;52.84
74544;BME280;63016;55.030;38.710;2024-03-22T06:18:52;100376.13;;;3.99;52.90
74544;BME280;63016;55.030;38.710;2024-03-22T06:21:17;100357.53;;;4.18;52.90
74544;BME280;63016;55.030;38.710;2024-03-22T06:23:50;100368.50;;;4.44;52.62
74544;BME280;63016;55.030;38.710;2024-03-22T06:26:16;100371.34;;;4.63;52.79
74544;BME280;63016;55.030;38.710;2024-03-22T06:28:41;100364.66;;;4.83;52.48
74544;BME280;63016;55.030;38.710;2024-03-22T06:31:07;100369.03;;;5.05;52.28
74544;BME280;63016;55.030;38.710;2024-03-22T06:33:33;100355.72;;;5.21;52.46
74544;BME280;63016;55.030;38.710;2024-03-22T06:35:58;100367.81;;;5.43;52.55
74544;BME280;63016;55.030;38.710;2024-03-22T06:38:25;100362.91;;;5.60;52.50
74544;BME280;63016;55.030;38.710;2024-03-22T06:40:50;100363.09;;;5.80;52.23
74544;BME280;63016;55.030;38.710;2024-03-22T06:43:16;100363.56;;;5.96;52.43
74544;BME280;63016;55.030;38.710;2024-03-22T06:45:41;100363.81;;;6.14;52.16
74544;BME280;63016;55.030;38.710;2024-03-22T06:48:07;100363.41;;;6.30;51.94
74544;BME280;63016;55.030;38.710;2024-03-22T06:50:32;100367.75;;;6.50;52.18
74544;BME280;63016;55.030;38.710;2024-03-22T06:52:58;100358.53;;;6.67;52.07
74544;BME280;63016;55.030;38.710;2024-03-22T06:55:23;100348.78;;;6.80;51.62
74544;BME280;63016;55.030;38.710;2024-03-22T06:57:50;100355.97;;;6.98;52.31
74544;BME280;63016;55.030;38.710;2024-03-22T07:00:16;100341.94;;;7.10;52.08
74544;BME280;63016;55.030;38.710;2024-03-22T07:02:42;100344.28;;;7.22;51.63
74544;BME280;63016;55.030;38.710;2024-03-22T07:05:08;100347.19;;;7.39;52.10
74544;BME280;63016;55.030;38.710;2024-03-22T07:07:35;100343.53;;;7.51;51.36
74544;BME280;63016;55.030;38.710;2024-03-22T07:10:01;100343.97;;;7.66;51.47
74544;BME280;63016;55.030;38.710;2024-03-22T07:12:27;100339.59;;;7.76;51.57
74544;BME280;63016;55.030;38.710;2024-03-22T07:14:53;100346.72;;;7.84;51.16
74544;BME280;63016;55.030;38.710;2024-03-22T07:17:18;100336.59;;;7.90;51.86
74544;BME280;63016;55.030;38.710;2024-03-22T07:19:50;100341.50;;;8.03;51.61
74544;BME280;63016;55.030;38.710;2024-03-22T07:22:16;100338.75;;;8.14;51.47
74544;BME280;63016;55.030;38.710;2024-03-22T07:24:41;100340.22;;;8.27;51.42
74544;BME280;63016;55.030;38.710;2024-03-22T07:27:07;100339.38;;;8.36;51.29
74544;BME280;63016;55.030;38.710;2024-03-22T07:29:32;100336.81;;;8.45;51.66
74544;BME280;63016;55.030;38.710;2024-03-22T07:31:58;100332.25;;;8.57;51.63
74544;BME280;63016;55.030;38.710;2024-03-22T07:34:23;100331.69;;;8.63;51.62
74544;BME280;63016;55.030;38.710;2024-03-22T07:36:49;100337.69;;;8.73;50.72
74544;BME280;63016;55.030;38.710;2024-03-22T07:39:14;100334.06;;;8.84;51.22
74544;BME280;63016;55.030;38.710;2024-03-22T07:41:40;100334.03;;;8.94;51.62
74544;BME280;63016;55.030;38.710;2024-03-22T07:44:05;100320.31;;;9.01;51.94
74544;BME280;63016;55.030;38.710;2024-03-22T07:46:31;100317.50;;;9.13;51.75
74544;BME280;63016;55.030;38.710;2024-03-22T07:48:56;100306.09;;;9.23;51.28
74544;BME280;63016;55.030;38.710;2024-03-22T07:51:23;100302.56;;;9.33;51.34
74544;BME280;63016;55.030;38.710;2024-03-22T07:53:48;100299.41;;;9.39;51.08
74544;BME280;63016;55.030;38.710;2024-03-22T07:56:14;100298.50;;;9.48;51.50
74544;BME280;63016;55.030;38.710;2024-03-22T07:58:41;100301.34;;;9.55;51.34
74544;BME280;63016;55.030;38.710;2024-03-22T08:01:06;100302.69;;;9.59;50.97
74544;BME280;63016;55.030;38.710;2024-03-22T08:03:32;100291.94;;;9.62;50.88
74544;BME280;63016;55.030;38.710;2024-03-22T08:05:57;100292.31;;;9.67;50.97
74544;BME280;63016;55.030;38.710;2024-03-22T08:08:22;100283.91;;;9.73;50.60
74544;BME280;63016;55.030;38.710;2024-03-22T08:10:48;100282.19;;;9.82;51.34
74544;BME280;63016;55.030;38.710;2024-03-22T08:13:13;100284.84;;;9.90;50.73
74544;BME280;63016;55.030;38.710;2024-03-22T08:15:40;100274.94;;;9.93;50.69
74544;BME280;63016;55.030;38.710;2024-03-22T08:18:05;100269.28;;;9.98;50.27
74544;BME280;63016;55.030;38.710;2024-03-22T08:20:31;100274.03;;;10.02;50.21
74544;BME280;63016;55.030;38.710;2024-03-22T08:22:59;100259.84;;;10.05;50.76
74544;BME280;63016;55.030;38.710;2024-03-22T08:25:24;100264.84;;;10.16;50.90
74544;BME280;63016;55.030;38.710;2024-03-22T08:27:50;100256.56;;;10.21;50.79
74544;BME280;63016;55.030;38.710;2024-03-22T08:30:18;100260.38;;;10.26;50.29
74544;BME280;63016;55.030;38.710;2024-03-22T08:32:43;100264.44;;;10.29;50.63
74544;BME280;63016;55.030;38.710;2024-03-22T08:35:09;100262.19;;;10.34;50.40
74544;BME280;63016;55.030;38.710;2024-03-22T08:37:34;100258.31;;;10.38;50.06
74544;BME280;63016;55.030;38.710;2024-03-22T08:40:00;100258.97;;;10.40;49.85
74544;BME280;63016;55.030;38.710;2024-03-22T08:42:25;100249.81;;;10.36;49.65
74544;BME280;63016;55.030;38.710;2024-03-22T08:44:51;100253.09;;;10.38;49.58
74544;BME280;63016;55.030;38.710;2024-03-22T08:47:16;100258.31;;;10.38;49.35
74544;BME280;63016;55.030;38.710;2024-03-22T08:49:42;100259.28;;;10.37;49.58
74544;BME280;63016;55.030;38.710;2024-03-22T08:52:09;100248.19;;;10.35;49.55
74544;BME280;63016;55.030;38.710;2024-03-22T08:54:35;100243.78;;;10.36;49.84
74544;BME280;63016;55.030;38.710;2024-03-22T08:57:00;100242.97;;;10.35;49.48
74544;BME280;63016;55.030;38.710;2024-03-22T08:59:26;100232.84;;;10.32;48.96
74544;BME280;63016;55.030;38.710;2024-03-22T09:01:52;100233.66;;;10.33;49.39
74544;BME280;63016;55.030;38.710;2024-03-22T09:04:17;100230.88;;;10.34;49.73
74544;BME280;63016;55.030;38.710;2024-03-22T09:06:43;100224.84;;;10.34;48.98
74544;BME280;63016;55.030;38.710;2024-03-22T09:09:08;100226.81;;;10.32;49.18
74544;BME280;63016;55.030;38.710;2024-03-22T09:11:34;100214.75;;;10.31;49.25
74544;BME280;63016;55.030;38.710;2024-03-22T09:14:00;100218.00;;;10.33;49.26
74544;BME280;63016;55.030;38.710;2024-03-22T09:16:25;100215.22;;;10.34;49.36
74544;BME280;63016;55.030;38.710;2024-03-22T09:18:51;100216.06;;;10.35;49.40
74544;BME280;63016;55.030;38.710;2024-03-22T09:21:16;100208.22;;;10.35;49.37
74544;BME280;63016;55.030;38.710;2024-03-22T09:23:42;100193.22;;;10.28;48.75
74544;BME280;63016;55.030;38.710;2024-03-22T09:26:07;100200.22;;;10.28;48.87
74544;BME280;63016;55.030;38.710;2024-03-22T09:28:33;100203.00;;;10.26;48.74
74544;BME280;63016;55.030;38.710;2024-03-22T09:31:04;100197.91;;;10.25;48.62
74544;BME280;63016;55.030;38.710;2024-03-22T09:33:34;100200.66;;;10.23;48.57
74544;BME280;63016;55.030;38.710;2024-03-22T09:36:00;100189.41;;;10.23;49.30
74544;BME280;63016;55.030;38.710;2024-03-22T09:38:25;100187.47;;;10.25;49.49
74544;BME280;63016;55.030;38.710;2024-03-22T09:40:51;100185.56;;;10.27;48.88
74544;BME280;63016;55.030;38.710;2024-03-22T09:43:20;100184.56;;;10.28;49.61
74544;BME280;63016;55.030;38.710;2024-03-22T09:45:49;100170.72;;;10.27;49.06
74544;BME280;63016;55.030;38.710;2024-03-22T09:48:18;100170.41;;;10.31;48.20
74544;BME280;63016;55.030;38.710;2024-03-22T09:50:47;100161.53;;;10.23;48.38
74544;BME280;63016;55.030;38.710;2024-03-22T09:53:13;100168.84;;;10.20;48.23
74544;BME280;63016;55.030;38.710;2024-03-22T09:55:45;100169.81;;;10.19;48.75
74544;BME280;63016;55.030;38.710;2024-03-22T09:58:10;100162.81;;;10.19;48.83
74544;BME280;63016;55.030;38.710;2024-03-22T10:00:36;100165.59;;;10.18;48.98
74544;BME280;63016;55.030;38.710;2024-03-22T10:03:03;100167.38;;;10.17;48.82
74544;BME280;63016;55.030;38.710;2024-03-22T10:05:30;100173.25;;;10.19;48.88
74544;BME280;63016;55.030;38.710;2024-03-22T10:07:55;100163.97;;;10.17;48.71
74544;BME280;63016;55.030;38.710;2024-03-22T10:10:21;100171.91;;;10.15;48.30
74544;BME280;63016;55.030;38.710;2024-03-22T10:12:47;100173.22;;;10.11;48.48
74544;BME280;63016;55.030;38.710;2024-03-22T10:15:13;100153.66;;;10.07;49.00
74544;BME280;63016;55.030;38.710;2024-03-22T10:17:39;100160.34;;;10.10;48.88
74544;BME280;63016;55.030;38.710;2024-03-22T10:20:06;100167.84;;;10.13;49.07
74544;BME280;63016;55.030;38.710;2024-03-22T10:22:42;100157.25;;;10.14;48.44
74544;BME280;63016;55.030;38.710;2024-03-22T10:25:12;100143.06;;;10.09;48.82
74544;BME280;63016;55.030;38.710;2024-03-22T10:27:40;100151.22;;;10.14;48.73
74544;BME280;63016;55.030;38.710;2024-03-22T10:30:08;100145.19;;;10.13;48.94
74544;BME280;63016;55.030;38.710;2024-03-22T10:32:37;100138.19;;;10.14;49.03
74544;BME280;63016;55.030;38.710;2024-03-22T10:35:06;100133.66;;;10.16;48.47
74544;BME280;63016;55.030;38.710;2024-03-22T10:37:39;100145.72;;;10.17;48.20
74544;BME280;63016;55.030;38.710;2024-03-22T10:40:05;100140.81;;;10.14;48.27
74544;BME280;63016;55.030;38.710;2024-03-22T10:42:41;100133.97;;;10.13;48.65
74544;BME280;63016;55.030;38.710;2024-03-22T10:45:09;100141.44;;;10.08;48.23
74544;BME280;63016;55.030;38.710;2024-03-22T10:47:35;100136.38;;;10.06;48.18
74544;BME280;63016;55.030;38.710;2024-03-22T10:50:06;100136.69;;;10.03;48.63
74544;BME280;63016;55.030;38.710;2024-03-22T10:52:46;100131.16;;;10.06;48.22
74544;BME280;63016;55.030;38.710;2024-03-22T10:55:18;100128.06;;;10.02;48.31
74544;BME280;63016;55.030;38.710;2024-03-22T10:57:44;100131.31;;;10.04;48.39
74544;BME280;63016;55.030;38.710;2024-03-22T11:00:10;100127.53;;;9.99;48.34
74544;BME280;63016;55.030;38.710;2024-03-22T11:02:37;100131.13;;;9.98;48.13
74544;BME280;63016;55.030;38.710;2024-03-22T11:05:03;100130.97;;;9.99;48.30
74544;BME280;63016;55.030;38.710;2024-03-22T11:07:30;100132.75;;;9.99;48.43
74544;BME280;63016;55.030;38.710;2024-03-22T11:09:56;100130.44;;;9.96;48.42
74544;BME280;63016;55.030;38.710;2024-03-22T11:12:24;100125.91;;;9.98;48.29
74544;BME280;63016;55.030;38.710;2024-03-22T11:14:52;100129.50;;;9.97;48.28
74544;BME280;63016;55.030;38.710;2024-03-22T11:17:17;100116.75;;;9.94;48.39
74544;BME280;63016;55.030;38.710;2024-03-22T11:19:43;100114.47;;;9.91;48.15
74544;BME280;63016;55.030;38.710;2024-03-22T11:22:09;100117.53;;;9.86;48.20
74544;BME280;63016;55.030;38.710;2024-03-22T11:24:39;100108.41;;;9.82;48.18
74544;BME280;63016;55.030;38.710;2024-03-22T11:27:05;100113.91;;;9.79;48.08
74544;BME280;63016;55.030;38.710;2024-03-22T11:29:31;100111.16;;;9.81;48.93
74544;BME280;63016;55.030;38.710;2024-03-22T11:31:56;100103.84;;;9.84;48.53
74544;BME280;63016;55.030;38.710;2024-03-22T11:34:22;100098.00;;;9.82;48.71
74544;BME280;63016;55.030;38.710;2024-03-22T11:36:47;100090.47;;;9.79;48.94
74544;BME280;63016;55.030;38.710;2024-03-22T11:39:15;100085.09;;;9.81;48.41
74544;BME280;63016;55.030;38.710;2024-03-22T11:41:59;100083.00;;;9.84;48.22
74544;BME280;63016;55.030;38.710;2024-03-22T11:44:24;100074.03;;;9.78;48.31
74544;BME280;63016;55.030;38.710;2024-03-22T11:46:51;100068.81;;;9.78;48.45
74544;BME280;63016;55.030;38.710;2024-03-22T11:49:36;100068.00;;;9.78;48.27
74544;BME280;63016;55.030;38.710;2024-03-22T11:52:03;100059.84;;;9.73;48.20
74544;BME280;63016;55.030;38.710;2024-03-22T11:54:28;100057.81;;;9.67;48.07
74544;BME280;63016;55.030;38.710;2024-03-22T11:56:57;100062.56;;;9.63;48.14
74544;BME280;63016;55.030;38.710;2024-03-22T11:59:22;100058.31;;;9.62;48.57
74544;BME280;63016;55.030;38.710;2024-03-22T12:01:48;100051.97;;;9.65;48.47
74544;BME280;63016;55.030;38.710;2024-03-22T12:04:14;100050.00;;;9.67;48.57
74544;BME280;63016;55.030;38.710;2024-03-22T12:06:44;100045.78;;;9.66;48.62
74544;BME280;63016;55.030;38.710;2024-03-22T12:09:11;100047.28;;;9.68;48.42
74544;BME280;63016;55.030;38.710;2024-03-22T12:11:38;100035.88;;;9.69;48.38
74544;BME280;63016;55.030;38.710;2024-03-22T12:14:03;100024.81;;;9.67;48.26
74544;BME280;63016;55.030;38.710;2024-03-22T12:16:29;100030.81;;;9.68;47.77
74544;BME280;63016;55.030;38.710;2024-03-22T12:18:54;100018.41;;;9.62;48.61
74544;BME280;63016;55.030;38.710;2024-03-22T12:21:20;100019.09;;;9.64;48.37
74544;BME280;63016;55.030;38.710;2024-03-22T12:23:45;100021.34;;;9.59;47.90
74544;BME280;63016;55.030;38.710;2024-03-22T12:26:11;100016.44;;;9.56;48.16
74544;BME280;63016;55.030;38.710;2024-03-22T12:28:36;100007.97;;;9.53;48.35
74544;BME280;63016;55.030;38.710;2024-03-22T12:31:04;100009.06;;;9.51;48.28
74544;BME280;63016;55.030;38.710;2024-03-22T12:33:29;100000.97;;;9.54;48.72
74544;BME280;63016;55.030;38.710;2024-03-22T12:35:55;100000.44;;;9.50;48.43
74544;BME280;63016;55.030;38.710;2024-03-22T12:38:20;99987.44;;;9.50;48.35